Startpagina
METAR-TAF:

METAR-TAF

Vliegvelden :

Elsenborn

Bütgenbach, België

breedte: 50-28N, lengte: 006-11E, hoogte: 564 m

Actueel weer

Dit bericht is 41 minuten geleden gemaakt, om 17:55 UTC
Wind 6 kt uit het noordoosten
Temperatuur 14°C
Vochtigheid 88%
Druk 1011 hPa
Zicht 10 km of meer

METAR: EBLB 211755Z AUTO 05006KT 9999 OVC011/// 14/12 Q1011 GRN

Tijdstip: 20:36 (18:36 UTC)


TAF: ontbreekt

Waarnemingen en weersverwachtingen van meer dan 4000 vliegvelden (METAR en TAF).

De beschikbare stations zijn de gele en rode punten op de kaart.

Ga met uw muis naar het station om de naam te zien.

Klik dan om waarnemingen en weersverwachtingen te zien.

kaart wijzigen: klik op de groene knoppen met een zwart kruis om in te zoomen, op de groene knop met een streepje om uit te zoomen of op de groene pijlen voor aangrenzende kaarten.


METAR-TAF: